< < Back
Terminal Aerodrome Forecast


Current Version              Previous Versions:   1  2  3  4  5  6  7  8  9  

Terminal Aerodrome Forecast

040
FTUS42 KFFC 311625 AAA
TAFMCN
TAF AMD
KMCN 311625Z 3116/0112 10005KT P6SM FEW030
     FM311800 16005KT P6SM VCSH BKN050
      TEMPO 3118/3122 VRB10G20KT 5SM -TSRA BKN050CB
     FM010100 00000KT P6SM SCT060=

Latest METAR

581
SAUS80 KWBC 311700 RRA
MTRMCN
METAR KMCN 311653Z 17006KT 10SM SCT038 34/23 A2994 RMK AO2 SLP131
T03440233


USA.gov is the U.S. government's official web portal to all federal, state and local government web resources and services.